Time;durP1;ratioP1;P1;durP2;ratioP2;P2;SDS_P1;SDS_P2;PMS_P1;PMS_P2;Temp;Humidity;BMP_temperature;BMP_pressure;BME280_temperature;BME280_humidity;BME280_pressure;Samples;Min_cycle;Max_cycle;Signal;HPM_P1;HPM_P2
2021/10/06 00:01:37;;;;;;;7.23;4.03;;;12.80;82.10;;;;;;4925380;29;20421;-92
2021/10/06 00:04:03;;;;;;;4.22;2.65;;;12.80;82.00;;;;;;4925389;29;20824;-92
2021/10/06 00:06:30;;;;;;;6.45;3.13;;;12.90;82.10;;;;;;4925840;29;20193;-92
2021/10/06 00:08:56;;;;;;;6.05;2.95;;;12.90;81.90;;;;;;4925549;29;20236;-93
2021/10/06 00:11:22;;;;;;;5.57;2.35;;;12.70;81.80;;;;;;4925075;29;20212;-92
2021/10/06 00:13:49;;;;;;;7.05;2.10;;;12.60;82.00;;;;;;4924985;29;20216;-92
2021/10/06 00:16:16;;;;;;;4.70;2.17;;;12.60;82.40;;;;;;4940595;29;20265;-93
2021/10/06 00:18:42;;;;;;;6.07;1.98;;;12.80;82.20;;;;;;4924935;29;20181;-92
2021/10/06 00:21:08;;;;;;;9.30;2.50;;;12.80;81.60;;;;;;4922237;29;20641;-92
2021/10/06 00:23:34;;;;;;;5.50;2.00;;;12.80;81.80;;;;;;4922214;29;20216;-92
2021/10/06 00:26:01;;;;;;;4.57;2.17;;;12.70;82.10;;;;;;4924288;29;20432;-92
2021/10/06 00:28:27;;;;;;;13.82;4.35;;;12.70;82.20;;;;;;4922606;29;20192;-92
2021/10/06 00:30:53;;;;;;;10.93;2.25;;;12.80;81.50;;;;;;4923511;29;20208;-92
2021/10/06 00:33:20;;;;;;;10.13;2.20;;;12.80;81.10;;;;;;4922109;29;20676;-92
2021/10/06 00:35:51;;;;;;;13.55;2.58;;;12.70;80.80;;;;;;4923139;29;20181;-92
2021/10/06 00:38:17;;;;;;;4.32;1.98;;;12.60;81.30;;;;;;4922812;29;20245;-92
2021/10/06 00:40:43;;;;;;;7.97;2.10;;;12.60;81.80;;;;;;4939217;29;20200;-92
2021/10/06 00:43:09;;;;;;;7.80;2.30;;;12.60;81.70;;;;;;4921698;29;20452;-91
2021/10/06 00:45:35;;;;;;;8.35;2.45;;;12.60;81.70;;;;;;4923280;29;20448;-92
2021/10/06 00:48:01;;;;;;;4.93;2.08;;;12.70;81.80;;;;;;4922273;29;20247;-92
2021/10/06 00:50:27;;;;;;;6.38;3.05;;;12.70;81.40;;;;;;4924409;29;20182;-92
2021/10/06 00:52:53;;;;;;;5.10;1.80;;;12.80;81.10;;;;;;4923956;29;20205;-92
2021/10/06 00:55:19;;;;;;;2.00;1.65;;;13.00;80.70;;;;;;4924016;29;20424;-92
2021/10/06 00:57:45;;;;;;;7.85;2.10;;;13.00;80.10;;;;;;4925470;29;20193;-92
2021/10/06 01:00:12;;;;;;;6.77;2.73;;;12.90;80.20;;;;;;4925625;29;20185;-93
2021/10/06 01:02:38;;;;;;;5.82;2.08;;;12.90;80.20;;;;;;4927072;29;20540;-93
2021/10/06 01:05:20;;;;;;;5.20;2.30;;;13.10;80.00;;;;;;4942501;29;20208;-92
2021/10/06 01:07:46;;;;;;;2.72;1.70;;;13.20;79.50;;;;;;4934866;29;20173;-90
2021/10/06 01:10:12;;;;;;;6.50;2.30;;;13.10;79.20;;;;;;4950783;29;20269;-89
2021/10/06 01:12:40;;;;;;;8.23;4.22;;;13.00;79.10;;;;;;4932502;29;20208;-90
2021/10/06 01:15:09;;;;;;;3.13;1.60;;;13.10;78.80;;;;;;4934366;29;20189;-90
2021/10/06 01:17:35;;;;;;;4.95;2.00;;;13.10;78.70;;;;;;4932734;29;20186;-90
2021/10/06 01:20:02;;;;;;;2.70;1.35;;;13.10;78.80;;;;;;4933438;29;20177;-90
2021/10/06 01:22:28;;;;;;;4.30;1.83;;;13.30;78.40;;;;;;4931713;29;20235;-90
2021/10/06 01:24:54;;;;;;;2.20;1.70;;;13.30;78.30;;;;;;4952129;29;20552;-90
2021/10/06 01:27:20;;;;;;;5.33;1.70;;;13.30;78.20;;;;;;4935189;29;20654;-89
2021/10/06 01:29:45;;;;;;;1.50;1.40;;;13.30;77.80;;;;;;4934741;29;20181;-90
2021/10/06 01:32:17;;;;;;;4.63;1.60;;;13.30;77.20;;;;;;4933019;29;20311;-90
2021/10/06 01:34:54;;;;;;;4.10;1.63;;;13.30;77.50;;;;;;4936822;29;20185;-90
2021/10/06 01:37:20;;;;;;;4.30;1.95;;;13.20;77.40;;;;;;4936113;29;20184;-90
2021/10/06 01:39:46;;;;;;;4.43;1.70;;;13.10;77.50;;;;;;4935335;29;20204;-90
2021/10/06 01:42:12;;;;;;;7.10;2.30;;;13.20;77.20;;;;;;4953344;29;20181;-90
2021/10/06 01:44:37;;;;;;;4.50;1.60;;;13.30;77.20;;;;;;4951779;29;20288;-89
2021/10/06 01:47:03;;;;;;;4.03;1.60;;;13.30;77.30;;;;;;4950428;29;20211;-89
2021/10/06 01:49:29;;;;;;;3.20;1.80;;;13.30;77.10;;;;;;4939104;29;20622;-90
2021/10/06 01:51:55;;;;;;;3.37;1.90;;;13.40;76.50;;;;;;4937990;29;20216;-89
2021/10/06 01:54:20;;;;;;;2.33;1.40;;;13.40;76.40;;;;;;4938317;29;20224;-90
2021/10/06 01:56:46;;;;;;;1.63;1.43;;;13.30;76.90;;;;;;4935098;29;20425;-89
2021/10/06 01:59:12;;;;;;;3.50;1.63;;;13.20;75.70;;;;;;4937497;29;20181;-89
2021/10/06 02:01:38;;;;;;;5.13;1.60;;;13.10;76.10;;;;;;4936081;29;20925;-89
2021/10/06 02:04:04;;;;;;;6.60;1.40;;;13.00;76.40;;;;;;4934083;29;20233;-89
2021/10/06 02:06:29;;;;;;;4.27;1.80;;;13.10;76.60;;;;;;4933183;29;20429;-89
2021/10/06 02:08:55;;;;;;;7.27;1.73;;;13.00;76.60;;;;;;4935072;29;20473;-89
2021/10/06 02:11:21;;;;;;;4.93;1.67;;;13.10;77.00;;;;;;4941932;29;20464;-88
2021/10/06 02:13:47;;;;;;;5.47;1.90;;;13.00;77.70;;;;;;4940362;29;20292;-89
2021/10/06 02:16:12;;;;;;;2.90;1.90;;;12.90;78.60;;;;;;4941057;29;20181;-89
2021/10/06 02:18:38;;;;;;;2.60;1.67;;;12.90;78.70;;;;;;4938246;29;20444;-89
2021/10/06 02:21:04;;;;;;;8.80;1.43;;;13.00;78.80;;;;;;4937972;29;20196;-89
2021/10/06 02:23:30;;;;;;;5.17;2.10;;;12.90;78.90;;;;;;4938809;29;20240;-89
2021/10/06 02:25:55;;;;;;;5.73;1.70;;;12.90;79.20;;;;;;4921489;29;20461;-88
2021/10/06 02:28:21;;;;;;;7.60;1.63;;;12.90;79.30;;;;;;4935659;29;20440;-88
2021/10/06 02:30:49;;;;;;;7.13;1.80;;;13.00;79.30;;;;;;4936981;29;20212;-89
2021/10/06 02:33:15;;;;;;;6.03;1.77;;;12.90;79.10;;;;;;4937362;29;20302;-89
2021/10/06 02:35:41;;;;;;;7.70;2.00;;;12.80;78.80;;;;;;4937022;29;20177;-89
2021/10/06 02:38:07;;;;;;;2.20;1.57;;;12.90;78.90;;;;;;4937063;29;20192;-89
2021/10/06 02:40:32;;;;;;;4.23;1.47;;;13.10;77.90;;;;;;4933257;29;20201;-89
2021/10/06 02:42:59;;;;;;;7.73;2.10;;;13.30;77.70;;;;;;4934625;29;20197;-89
2021/10/06 02:45:24;;;;;;;2.88;1.20;;;13.30;77.30;;;;;;4932033;29;20488;-89
2021/10/06 02:47:50;;;;;;;3.13;1.77;;;13.20;77.50;;;;;;4932574;29;20185;-90
2021/10/06 02:50:19;;;;;;;4.30;2.00;;;13.20;77.50;;;;;;4933690;29;20177;-89
2021/10/06 02:52:45;;;;;;;4.70;1.73;;;13.30;77.70;;;;;;4938492;29;20568;-89
2021/10/06 02:55:11;;;;;;;2.27;2.07;;;13.20;77.20;;;;;;4943732;29;20181;-89
2021/10/06 02:57:37;;;;;;;6.80;1.73;;;13.30;77.10;;;;;;4944965;29;20449;-89
2021/10/06 03:00:09;;;;;;;3.47;1.75;;;13.20;77.20;;;;;;4952304;28;20193;-88
2021/10/06 03:02:36;;;;;;;4.70;1.42;;;13.20;77.50;;;;;;4961231;28;20266;-89
2021/10/06 03:05:03;;;;;;;5.35;1.63;;;13.20;76.50;;;;;;4961514;28;20165;-89
2021/10/06 03:07:28;;;;;;;5.53;1.63;;;13.30;76.70;;;;;;4962210;28;20188;-90
2021/10/06 03:09:54;;;;;;;5.27;2.30;;;13.10;76.80;;;;;;4961528;28;20241;-91
2021/10/06 03:12:20;;;;;;;3.97;1.50;;;13.20;77.00;;;;;;4959907;28;20280;-90
2021/10/06 03:14:45;;;;;;;5.97;1.87;;;13.20;76.20;;;;;;4950493;29;20189;-90
2021/10/06 03:17:11;;;;;;;13.07;6.30;;;13.10;76.10;;;;;;4953766;29;20169;-91
2021/10/06 03:19:37;;;;;;;4.13;1.90;;;13.10;76.80;;;;;;4958944;29;20169;-91
2021/10/06 03:22:03;;;;;;;7.20;1.77;;;13.10;76.70;;;;;;4952773;29;20272;-90
2021/10/06 03:24:28;;;;;;;3.87;1.60;;;13.10;76.90;;;;;;4939775;29;20201;-91
2021/10/06 03:26:54;;;;;;;6.33;1.40;;;13.10;77.00;;;;;;4938797;29;20417;-90
2021/10/06 03:29:20;;;;;;;11.93;1.60;;;13.10;76.40;;;;;;4936345;29;20429;-90
2021/10/06 03:31:46;;;;;;;3.47;1.40;;;13.10;76.40;;;;;;4938189;29;20496;-90
2021/10/06 03:34:12;;;;;;;5.83;2.33;;;13.20;76.00;;;;;;4936213;29;20205;-90
2021/10/06 03:36:37;;;;;;;4.67;1.73;;;13.30;75.70;;;;;;4934388;29;20445;-89
2021/10/06 03:39:03;;;;;;;3.93;1.33;;;13.30;75.80;;;;;;4937491;29;20208;-90
2021/10/06 03:41:29;;;;;;;8.70;1.40;;;13.30;75.80;;;;;;4934415;29;20181;-89
2021/10/06 03:43:55;;;;;;;4.30;1.80;;;13.30;76.00;;;;;;4934741;29;20249;-89
2021/10/06 03:46:21;;;;;;;8.67;1.87;;;13.30;76.10;;;;;;4933474;29;20512;-90
2021/10/06 03:48:47;;;;;;;7.13;2.50;;;13.20;76.20;;;;;;4952074;29;20891;-90
2021/10/06 03:51:13;;;;;;;5.50;1.93;;;13.20;76.90;;;;;;4951527;29;20555;-89
2021/10/06 03:53:39;;;;;;;4.50;1.73;;;13.10;77.30;;;;;;4934434;29;20433;-89
2021/10/06 03:56:06;;;;;;;4.20;1.40;;;13.10;77.40;;;;;;4937500;29;20421;-90
2021/10/06 03:58:31;;;;;;;5.00;1.55;;;13.10;77.70;;;;;;4936553;29;20173;-90
2021/10/06 04:00:57;;;;;;;5.83;1.40;;;13.00;77.40;;;;;;4935582;29;20185;-90
2021/10/06 04:03:23;;;;;;;10.67;2.47;;;13.00;77.20;;;;;;4937047;29;20241;-91
2021/10/06 04:05:49;;;;;;;8.52;2.08;;;13.10;77.50;;;;;;4940588;29;20243;-90
2021/10/06 04:08:17;;;;;;;8.33;1.73;;;13.10;77.80;;;;;;4938008;29;20212;-90
2021/10/06 04:10:44;;;;;;;4.72;2.47;;;13.10;77.60;;;;;;4936237;29;20427;-90
2021/10/06 04:13:09;;;;;;;6.00;1.80;;;13.20;77.70;;;;;;4937022;29;20253;-90
2021/10/06 04:15:37;;;;;;;8.43;2.40;;;13.30;77.40;;;;;;4936469;29;20185;-90
2021/10/06 04:18:05;;;;;;;2.70;1.65;;;13.30;77.60;;;;;;4947397;29;20444;-90
2021/10/06 04:20:34;;;;;;;4.07;2.28;;;13.20;77.70;;;;;;4944779;29;20260;-89
2021/10/06 04:23:00;;;;;;;6.75;2.78;;;13.10;78.40;;;;;;4935426;29;20201;-89
2021/10/06 04:25:26;;;;;;;7.37;1.93;;;13.10;78.70;;;;;;4940285;29;20191;-91
2021/10/06 04:27:52;;;;;;;5.72;2.00;;;13.00;78.80;;;;;;4942776;29;20185;-90
2021/10/06 04:30:18;;;;;;;4.73;2.23;;;13.00;79.10;;;;;;4941419;29;20189;-91
2021/10/06 04:32:44;;;;;;;5.80;1.70;;;12.90;79.60;;;;;;4941821;29;20229;-91
2021/10/06 04:35:10;;;;;;;3.58;1.85;;;13.00;79.90;;;;;;4943096;29;20185;-91
2021/10/06 04:37:36;;;;;;;6.45;1.88;;;12.80;80.50;;;;;;4942437;29;20181;-91
2021/10/06 04:40:07;;;;;;;5.03;1.85;;;12.90;80.80;;;;;;4941566;29;20243;-90
2021/10/06 04:42:33;;;;;;;4.30;1.60;;;12.80;81.40;;;;;;4939903;29;20176;-90
2021/10/06 04:45:07;;;;;;;6.63;2.27;;;12.70;81.90;;;;;;4956394;29;20181;-89
2021/10/06 04:47:32;;;;;;;8.80;2.42;;;12.70;82.50;;;;;;4941279;28;20264;-91
2021/10/06 04:49:58;;;;;;;6.17;2.43;;;12.70;82.70;;;;;;4943064;29;20224;-91
2021/10/06 04:52:24;;;;;;;8.43;2.63;;;12.70;82.90;;;;;;4942925;28;20215;-92
2021/10/06 04:54:52;;;;;;;11.60;2.20;;;12.80;83.00;;;;;;4943446;28;20196;-89
2021/10/06 04:57:20;;;;;;;10.68;2.00;;;12.70;84.10;;;;;;5004387;23;20311;-90
2021/10/06 04:59:46;;;;;;;11.00;2.38;;;12.60;83.80;;;;;;4958863;29;20188;-90
2021/10/06 05:02:12;;;;;;;3.33;1.77;;;12.50;84.30;;;;;;4976632;28;20192;-89
2021/10/06 05:04:38;;;;;;;5.68;2.20;;;12.40;85.00;;;;;;4975684;28;20445;-90
2021/10/06 05:07:03;;;;;;;8.00;2.60;;;12.50;85.30;;;;;;4974008;28;20284;-91
2021/10/06 05:09:29;;;;;;;10.73;2.10;;;12.50;86.20;;;;;;4972747;28;20220;-91
2021/10/06 05:11:55;;;;;;;4.47;1.87;;;12.50;85.50;;;;;;4974355;28;20209;-91
2021/10/06 05:14:20;;;;;;;6.10;2.47;;;12.50;85.70;;;;;;4973920;28;20200;-91
2021/10/06 05:16:46;;;;;;;4.73;2.50;;;12.50;86.00;;;;;;4974148;29;20200;-91
2021/10/06 05:19:12;;;;;;;10.17;2.23;;;12.50;86.00;;;;;;4974389;29;20180;-91
2021/10/06 05:21:41;;;;;;;9.70;2.70;;;12.50;85.80;;;;;;4972987;29;20177;-91
2021/10/06 05:24:07;;;;;;;12.95;2.40;;;12.40;86.10;;;;;;4971877;28;20204;-93
2021/10/06 05:26:34;;;;;;;12.10;3.00;;;12.50;86.20;;;;;;4967927;29;20184;-92
2021/10/06 05:29:00;;;;;;;8.35;2.75;;;12.50;86.10;;;;;;4949251;29;20568;-93
2021/10/06 05:31:25;;;;;;;2.90;2.07;;;12.40;86.20;;;;;;4949048;29;20227;-93
2021/10/06 05:33:51;;;;;;;7.73;2.47;;;12.40;86.30;;;;;;4955349;29;20535;-92
2021/10/06 05:36:17;;;;;;;3.57;1.70;;;12.40;86.10;;;;;;4959739;29;20179;-91
2021/10/06 05:38:43;;;;;;;5.60;2.40;;;12.40;86.20;;;;;;4958988;28;20535;-92
2021/10/06 05:41:09;;;;;;;7.63;2.53;;;12.40;85.80;;;;;;4970240;28;20495;-91
2021/10/06 05:43:36;;;;;;;7.47;2.85;;;12.40;86.10;;;;;;4975690;28;20227;-91
2021/10/06 05:46:02;;;;;;;4.95;2.17;;;12.40;86.10;;;;;;4974242;28;20180;-92
2021/10/06 05:48:28;;;;;;;8.80;2.60;;;12.40;86.20;;;;;;4973302;28;20222;-92
2021/10/06 05:50:53;;;;;;;6.97;2.23;;;12.40;86.30;;;;;;4971815;28;20207;-92
2021/10/06 05:53:19;;;;;;;7.10;2.67;;;12.30;86.30;;;;;;4973596;28;20505;-92
2021/10/06 05:55:45;;;;;;;9.50;2.70;;;12.40;86.50;;;;;;4971480;28;20192;-92
2021/10/06 05:58:12;;;;;;;8.57;2.80;;;12.30;86.50;;;;;;4972903;28;20721;-92
2021/10/06 06:00:38;;;;;;;7.47;3.05;;;12.30;86.60;;;;;;4990043;28;20184;-92
2021/10/06 06:03:04;;;;;;;7.65;2.28;;;12.20;86.60;;;;;;4960730;28;20231;-93
2021/10/06 06:05:31;;;;;;;11.30;2.70;;;12.30;86.50;;;;;;4976021;28;20203;-92
2021/10/06 06:07:57;;;;;;;16.48;3.63;;;12.30;86.20;;;;;;4976671;28;20172;-92
2021/10/06 06:10:22;;;;;;;8.57;3.40;;;12.20;86.30;;;;;;4977917;28;20196;-92
2021/10/06 06:12:48;;;;;;;15.63;3.10;;;12.20;86.50;;;;;;4972714;28;20283;-93
2021/10/06 06:15:14;;;;;;;4.13;3.00;;;12.30;86.80;;;;;;4973857;28;20183;-92
2021/10/06 06:17:40;;;;;;;5.47;2.40;;;12.30;86.70;;;;;;4976076;28;20183;-92
2021/10/06 06:20:10;;;;;;;8.95;3.50;;;12.30;86.90;;;;;;4977761;28;20347;-92
2021/10/06 06:22:37;;;;;;;6.70;3.42;;;12.30;87.00;;;;;;4973657;28;20203;-92
2021/10/06 06:25:05;;;;;;;11.73;5.38;;;12.20;87.00;;;;;;4974158;28;20172;-92
2021/10/06 06:27:31;;;;;;;7.40;3.75;;;12.30;87.00;;;;;;4959365;28;20212;-93
2021/10/06 06:29:57;;;;;;;5.40;2.95;;;12.30;86.90;;;;;;4975311;28;20187;-92
2021/10/06 06:32:22;;;;;;;4.20;3.10;;;12.20;86.90;;;;;;4975657;28;20223;-93
2021/10/06 06:34:48;;;;;;;11.23;3.17;;;12.30;87.10;;;;;;4978800;28;20219;-93
2021/10/06 06:37:14;;;;;;;5.67;2.90;;;12.50;86.90;;;;;;4980218;28;20419;-92
2021/10/06 06:39:40;;;;;;;4.30;3.30;;;12.40;86.60;;;;;;4983130;28;20219;-92
2021/10/06 06:42:06;;;;;;;10.53;3.43;;;12.50;86.60;;;;;;4982406;28;20423;-92
2021/10/06 06:44:31;;;;;;;3.93;2.97;;;12.40;86.70;;;;;;4981075;28;20199;-93
2021/10/06 06:46:57;;;;;;;11.10;3.73;;;12.50;86.80;;;;;;4978289;28;20442;-93
2021/10/06 06:49:23;;;;;;;5.83;3.40;;;12.50;86.50;;;;;;4975638;28;20486;-93
2021/10/06 06:51:49;;;;;;;5.40;3.87;;;12.50;86.60;;;;;;4975774;28;20210;-93
2021/10/06 06:54:14;;;;;;;4.53;3.27;;;12.50;86.60;;;;;;4978161;28;20214;-92
2021/10/06 06:56:40;;;;;;;4.90;3.57;;;12.40;86.70;;;;;;4976579;28;20196;-92
2021/10/06 06:59:07;;;;;;;4.27;3.30;;;12.40;86.80;;;;;;4974745;28;20180;-92
2021/10/06 07:01:33;;;;;;;5.57;3.05;;;12.40;86.90;;;;;;4974717;28;20196;-93
2021/10/06 07:03:59;;;;;;;5.35;3.75;;;12.40;86.90;;;;;;4975068;28;20359;-93
2021/10/06 07:06:27;;;;;;;7.60;3.67;;;12.40;87.10;;;;;;4979190;28;20195;-92
2021/10/06 07:08:53;;;;;;;7.30;3.28;;;12.40;87.30;;;;;;4981316;28;20180;-94
2021/10/06 07:11:19;;;;;;;7.40;3.60;;;12.30;87.50;;;;;;4983985;28;20204;-92
2021/10/06 07:13:44;;;;;;;9.73;3.70;;;12.40;87.80;;;;;;5000694;28;20272;-94
2021/10/06 07:16:10;;;;;;;7.13;3.70;;;12.40;87.90;;;;;;4983881;28;20431;-93
2021/10/06 07:18:36;;;;;;;10.27;3.87;;;12.50;87.70;;;;;;4983693;28;20184;-94
2021/10/06 07:21:02;;;;;;;3.63;3.20;;;12.50;87.70;;;;;;4983959;28;20160;-94
2021/10/06 07:23:28;;;;;;;5.37;4.70;;;12.40;87.70;;;;;;4983693;28;20191;-96
2021/10/06 07:25:54;;;;;;;6.20;4.20;;;12.50;87.80;;;;;;5000598;28;20412;-95
2021/10/06 07:28:19;;;;;;;6.97;4.03;;;12.50;87.80;;;;;;4983572;28;20431;-94
2021/10/06 07:30:45;;;;;;;9.70;3.80;;;12.50;87.90;;;;;;4982791;28;20206;-94
2021/10/06 07:33:11;;;;;;;9.83;4.80;;;12.60;88.10;;;;;;4983302;28;20215;-94
2021/10/06 07:35:37;;;;;;;6.70;3.77;;;12.60;88.00;;;;;;4983564;28;20494;-96
2021/10/06 07:38:03;;;;;;;4.57;3.83;;;12.70;88.20;;;;;;4983590;28;20423;-96
2021/10/06 07:40:29;;;;;;;4.40;3.90;;;12.60;88.30;;;;;;4967594;28;20423;-95
2021/10/06 07:42:54;;;;;;;3.90;3.47;;;12.60;88.40;;;;;;4983487;28;20451;-94
2021/10/06 07:45:20;;;;;;;11.40;3.70;;;12.60;88.20;;;;;;4983447;28;20415;-95
2021/10/06 07:47:46;;;;;;;4.57;3.70;;;12.70;88.20;;;;;;4982977;28;20195;-94
2021/10/06 07:50:12;;;;;;;7.33;3.97;;;12.70;88.10;;;;;;4983213;28;20431;-93
2021/10/06 07:52:39;;;;;;;5.40;3.00;;;12.60;88.10;;;;;;4982536;28;20529;-92
2021/10/06 07:55:05;;;;;;;4.03;3.55;;;12.50;88.30;;;;;;4982714;28;20423;-93
2021/10/06 07:57:33;;;;;;;6.15;4.18;;;12.60;89.40;;;;;;4999542;28;20246;-91
2021/10/06 07:59:59;;;;;;;8.77;4.80;;;12.60;88.50;;;;;;4983098;28;20167;-94
2021/10/06 08:02:26;;;;;;;7.77;4.70;;;12.60;89.40;;;;;;4982841;28;20202;-93
2021/10/06 08:04:52;;;;;;;5.45;4.05;;;12.50;88.70;;;;;;4982420;28;20411;-93
2021/10/06 08:07:17;;;;;;;9.73;4.75;;;12.60;88.70;;;;;;4982194;28;20192;-92
2021/10/06 08:09:43;;;;;;;6.73;4.20;;;12.60;88.80;;;;;;4982669;28;20183;-93
2021/10/06 08:12:09;;;;;;;6.70;4.20;;;12.60;88.90;;;;;;4982788;28;20493;-94
2021/10/06 08:14:35;;;;;;;7.63;4.17;;;12.70;89.10;;;;;;4999633;28;20507;-93
2021/10/06 08:17:01;;;;;;;9.83;4.10;;;12.90;89.20;;;;;;4996577;28;20625;-91
2021/10/06 08:19:27;;;;;;;8.23;4.47;;;12.90;89.10;;;;;;4990101;28;20438;-92
2021/10/06 08:21:52;;;;;;;7.03;4.43;;;12.90;89.00;;;;;;4976026;28;20191;-92
2021/10/06 08:24:18;;;;;;;10.20;5.13;;;12.90;89.00;;;;;;4982470;28;20518;-96
2021/10/06 08:26:44;;;;;;;10.00;5.23;;;12.80;88.80;;;;;;4982443;28;20174;-94
2021/10/06 08:29:10;;;;;;;10.33;5.70;;;12.80;88.90;;;;;;4966637;28;20518;-95
2021/10/06 08:31:36;;;;;;;8.80;6.70;;;12.80;89.10;;;;;;4982376;28;20498;-95
2021/10/06 08:34:05;;;;;;;8.25;6.45;;;12.80;89.20;;;;;;4982336;28;20191;-94
2021/10/06 08:36:32;;;;;;;12.23;6.93;;;12.80;89.40;;;;;;4982374;28;20203;-95
2021/10/06 08:38:58;;;;;;;8.68;6.20;;;12.80;89.50;;;;;;4982378;28;20215;-93
2021/10/06 08:41:24;;;;;;;9.13;8.23;;;12.90;89.60;;;;;;4982226;28;20179;-95
2021/10/06 08:43:50;;;;;;;9.10;7.27;;;12.90;89.60;;;;;;4998770;28;20447;-94
2021/10/06 08:46:17;;;;;;;7.90;6.97;;;12.90;89.50;;;;;;4982127;28;20450;-94
2021/10/06 08:48:43;;;;;;;9.85;6.20;;;13.10;89.50;;;;;;4966529;28;20180;-95
2021/10/06 08:51:09;;;;;;;9.97;6.30;;;13.20;89.20;;;;;;4982001;28;20211;-95
2021/10/06 08:53:35;;;;;;;9.35;7.40;;;13.10;89.10;;;;;;4981970;28;20439;-95
2021/10/06 08:56:00;;;;;;;14.27;6.23;;;13.30;89.00;;;;;;4981891;28;20255;-95
2021/10/06 08:58:26;;;;;;;8.67;5.80;;;13.30;88.90;;;;;;4981881;28;20176;-94
2021/10/06 09:00:57;;;;;;;7.55;5.85;;;13.30;88.80;;;;;;4998691;28;20176;-95
2021/10/06 09:03:31;;;;;;;10.50;5.82;;;13.60;88.50;;;;;;4981946;28;20195;-94
2021/10/06 09:06:09;;;;;;;5.00;4.20;;;13.60;88.20;;;;;;4995028;28;20210;-93
2021/10/06 09:08:36;;;;;;;4.65;2.63;;;13.70;88.00;;;;;;4979718;28;20275;-93
2021/10/06 09:11:05;;;;;;;6.13;4.15;;;13.40;87.40;;;;;;4980237;28;20234;-93
2021/10/06 09:13:34;;;;;;;10.45;3.78;;;13.40;87.60;;;;;;4979587;28;20219;-93
2021/10/06 09:16:02;;;;;;;4.45;3.55;;;13.50;87.60;;;;;;4977693;28;20200;-93
2021/10/06 09:18:30;;;;;;;5.68;4.28;;;13.30;87.80;;;;;;4980093;28;20191;-94
2021/10/06 09:21:04;;;;;;;8.20;4.38;;;13.30;87.80;;;;;;4978464;28;20210;-93
2021/10/06 09:23:30;;;;;;;5.40;2.65;;;13.50;88.10;;;;;;4973701;28;20279;-92
2021/10/06 09:26:01;;;;;;;3.10;2.27;;;13.50;88.20;;;;;;4972032;28;20187;-92
2021/10/06 09:28:50;;;;;;;6.10;2.63;;;13.50;88.00;;;;;;4970937;28;20192;-91
2021/10/06 09:31:27;;;;;;;4.47;2.35;;;13.70;87.80;;;;;;4987899;28;20195;-92
2021/10/06 09:33:58;;;;;;;5.07;2.58;;;13.70;87.50;;;;;;4972190;28;20199;-91
2021/10/06 09:36:31;;;;;;;7.25;3.05;;;13.70;87.40;;;;;;4957644;28;20266;-92
2021/10/06 09:39:00;;;;;;;3.05;2.58;;;13.90;87.20;;;;;;4972677;28;20179;-92
2021/10/06 09:41:43;;;;;;;4.93;2.78;;;13.80;86.80;;;;;;4978054;28;20280;-92
2021/10/06 09:44:12;;;;;;;3.15;2.20;;;13.90;86.60;;;;;;4977424;28;20206;-92
2021/10/06 09:46:49;;;;;;;5.13;2.28;;;13.80;86.50;;;;;;4979080;28;20172;-91
2021/10/06 09:49:34;;;;;;;5.18;2.10;;;13.70;86.70;;;;;;4976826;28;20206;-91
2021/10/06 09:52:19;;;;;;;1.90;1.75;;;13.70;87.10;;;;;;4976791;28;20215;-92
2021/10/06 09:54:57;;;;;;;1.95;1.80;;;13.80;87.00;;;;;;4981926;28;20246;-92
2021/10/06 09:57:40;;;;;;;6.15;2.00;;;13.90;87.00;;;;;;4984270;28;20191;-92
2021/10/06 10:00:08;;;;;;;6.07;3.20;;;14.00;86.80;;;;;;4983347;28;20180;-92
2021/10/06 10:02:35;;;;;;;8.35;4.03;;;14.00;86.50;;;;;;4980102;28;20215;-92
2021/10/06 10:05:02;;;;;;;4.57;3.08;;;14.10;86.00;;;;;;4982004;28;20235;-92
2021/10/06 10:07:28;;;;;;;14.23;7.35;;;14.20;85.90;;;;;;4984601;28;20190;-93
2021/10/06 10:09:54;;;;;;;16.90;5.93;;;14.20;85.70;;;;;;4983206;28;20207;-92
2021/10/06 10:12:22;;;;;;;12.23;6.30;;;14.20;85.50;;;;;;4984135;28;20471;-92
2021/10/06 10:14:49;;;;;;;11.63;6.65;;;14.30;85.60;;;;;;4966211;28;20172;-92
2021/10/06 10:17:16;;;;;;;12.27;5.85;;;14.40;85.40;;;;;;4981581;28;20201;-92
2021/10/06 10:19:52;;;;;;;8.02;4.72;;;14.60;85.50;;;;;;4997317;28;20211;-91
2021/10/06 10:22:20;;;;;;;8.10;4.50;;;14.80;85.20;;;;;;4976733;28;20175;-92
2021/10/06 10:24:48;;;;;;;9.95;3.53;;;14.90;84.50;;;;;;4977615;28;20270;-92
2021/10/06 10:27:18;;;;;;;4.55;3.33;;;15.00;84.00;;;;;;4982993;28;20243;-93
2021/10/06 10:30:05;;;;;;;5.90;3.78;;;14.90;83.50;;;;;;4981436;28;20188;-93
2021/10/06 10:32:46;;;;;;;8.68;3.83;;;14.90;83.20;;;;;;4984712;28;20195;-96
2021/10/06 10:35:15;;;;;;;14.38;3.25;;;14.80;83.70;;;;;;4984766;28;20187;-95
2021/10/06 10:40:31;;;;;;;12.90;4.68;;;14.70;83.20;;;;;;5000634;28;20203;-93
2021/10/06 10:43:03;;;;;;;13.23;4.72;;;14.50;83.50;;;;;;4984034;28;20188;-94
2021/10/06 10:46:01;;;;;;;9.23;3.33;;;14.50;84.00;;;;;;4981557;28;20256;-93
2021/10/06 10:48:30;;;;;;;6.45;2.53;;;14.20;85.10;;;;;;4980915;28;20215;-93
2021/10/06 10:50:57;;;;;;;9.57;2.70;;;14.00;86.10;;;;;;4983439;28;20183;-94
2021/10/06 10:53:42;;;;;;;6.47;2.85;;;14.10;86.70;;;;;;4983304;28;20192;-93
2021/10/06 10:56:11;;;;;;;8.02;2.90;;;14.20;86.90;;;;;;4986489;28;20207;-94
2021/10/06 10:58:41;;;;;;;6.35;2.10;;;14.30;87.00;;;;;;4983577;28;20247;-94
2021/10/06 11:01:14;;;;;;;6.80;3.08;;;14.40;86.70;;;;;;4983335;28;20188;-93
2021/10/06 11:04:11;;;;;;;9.85;2.30;;;14.60;86.50;;;;;;5000509;28;20196;-94
2021/10/06 11:06:41;;;;;;;8.90;2.55;;;14.80;86.00;;;;;;4982908;28;20216;-94
2021/10/06 11:09:29;;;;;;;9.70;2.83;;;14.60;84.80;;;;;;4983861;28;20180;-94
2021/10/06 11:12:07;;;;;;;4.03;1.90;;;14.70;84.50;;;;;;4972957;28;20212;-92
2021/10/06 11:14:35;;;;;;;14.95;2.80;;;14.80;84.20;;;;;;4969362;28;20203;-92
2021/10/06 11:17:09;;;;;;;11.68;1.90;;;14.80;83.60;;;;;;4972988;28;20176;-92
2021/10/06 11:19:49;;;;;;;6.15;2.92;;;14.90;83.20;;;;;;4956613;29;20184;-91
2021/10/06 11:22:24;;;;;;;9.75;2.00;;;15.00;82.60;;;;;;4951847;28;20173;-92
2021/10/06 11:24:55;;;;;;;5.68;2.10;;;14.90;81.80;;;;;;4956010;29;20184;-92
2021/10/06 11:27:22;;;;;;;3.92;1.63;;;14.80;81.50;;;;;;4963171;28;20176;-95
2021/10/06 11:29:50;;;;;;;4.65;1.60;;;14.90;81.60;;;;;;4959520;28;20208;-93
2021/10/06 11:32:17;;;;;;;8.13;2.58;;;15.00;81.40;;;;;;4960979;28;20260;-93
2021/10/06 11:34:53;;;;;;;10.45;1.63;;;14.90;80.40;;;;;;4959340;29;20177;-92
2021/10/06 11:37:21;;;;;;;7.28;1.80;;;15.00;79.40;;;;;;4951556;29;20211;-93
2021/10/06 11:39:48;;;;;;;12.43;2.25;;;15.00;79.10;;;;;;4957289;28;20185;-93
2021/10/06 11:42:16;;;;;;;3.80;1.77;;;15.20;79.20;;;;;;4954882;28;20184;-92
2021/10/06 11:44:43;;;;;;;3.65;1.20;;;15.10;78.50;;;;;;4973538;29;20199;-93
2021/10/06 11:47:12;;;;;;;7.40;2.17;;;15.30;77.60;;;;;;4957626;29;20212;-93
2021/10/06 11:49:40;;;;;;;5.30;1.02;;;15.30;77.00;;;;;;4956639;29;20211;-93
2021/10/06 11:52:08;;;;;;;11.88;2.35;;;15.10;76.70;;;;;;4953656;29;20209;-92
2021/10/06 11:54:34;;;;;;;5.43;1.50;;;15.00;76.90;;;;;;4953351;29;20214;-92
2021/10/06 11:57:03;;;;;;;4.53;1.75;;;14.90;77.40;;;;;;4969305;29;20214;-93
2021/10/06 11:59:33;;;;;;;4.60;1.77;;;14.90;77.80;;;;;;4951683;29;20208;-93
2021/10/06 12:02:04;;;;;;;4.68;2.10;;;15.00;77.90;;;;;;4954247;29;20180;-92
2021/10/06 12:04:34;;;;;;;6.65;2.08;;;15.30;78.00;;;;;;4956173;29;20212;-93
2021/10/06 12:07:04;;;;;;;6.50;1.85;;;15.30;77.80;;;;;;4954938;29;20634;-93
2021/10/06 12:09:36;;;;;;;4.82;2.20;;;15.20;77.50;;;;;;4939918;29;20215;-93
2021/10/06 12:12:07;;;;;;;11.32;1.92;;;15.30;77.80;;;;;;4950524;29;20683;-93
2021/10/06 12:14:41;;;;;;;4.15;1.85;;;15.40;77.40;;;;;;4955052;29;20211;-92
2021/10/06 12:17:14;;;;;;;5.10;1.90;;;15.60;76.50;;;;;;4951681;29;20649;-92
2021/10/06 12:19:42;;;;;;;5.40;1.92;;;15.40;76.10;;;;;;4955876;29;20173;-93
2021/10/06 12:22:09;;;;;;;5.35;2.55;;;15.40;76.10;;;;;;4950960;29;20555;-91
2021/10/06 12:24:39;;;;;;;2.50;1.55;;;15.30;76.20;;;;;;4944628;29;20196;-92
2021/10/06 12:27:05;;;;;;;3.80;2.13;;;15.30;76.30;;;;;;4937933;29;20617;-92
2021/10/06 12:29:31;;;;;;;6.65;2.00;;;15.30;76.50;;;;;;4962256;29;20200;-91
2021/10/06 12:32:16;;;;;;;3.58;1.70;;;15.40;76.80;;;;;;4943034;29;20201;-93
2021/10/06 12:34:43;;;;;;;4.72;1.90;;;15.20;76.90;;;;;;4949409;29;20177;-92
2021/10/06 12:37:12;;;;;;;13.52;1.70;;;15.20;77.10;;;;;;4947279;29;20352;-92
2021/10/06 12:39:38;;;;;;;16.98;2.13;;;15.00;77.30;;;;;;4949375;29;20249;-92
2021/10/06 12:42:08;;;;;;;2.83;1.60;;;15.30;77.60;;;;;;4949514;29;20185;-92
2021/10/06 12:44:45;;;;;;;3.78;1.98;;;15.40;77.00;;;;;;4955418;29;20499;-91
2021/10/06 12:47:19;;;;;;;3.15;1.60;;;15.40;76.60;;;;;;4955203;29;20533;-92
2021/10/06 12:49:46;;;;;;;7.68;2.03;;;15.40;76.40;;;;;;4954427;29;20185;-93
2021/10/06 12:52:21;;;;;;;8.73;2.33;;;15.50;76.30;;;;;;4967281;29;20299;-93